Time;durP1;ratioP1;P1;durP2;ratioP2;P2;SDS_P1;SDS_P2;PMS_P1;PMS_P2;Temp;Humidity;BMP_temperature;BMP_pressure;BME280_temperature;BME280_humidity;BME280_pressure;Samples;Min_cycle;Max_cycle;Signal;HPM_P1;HPM_P2
2021/09/09 00:01:19;;;;;;;22.57;20.47;;;19.50;99.90;;;;;;6099811;23;20409;-88
2021/09/09 00:03:46;;;;;;;23.03;20.77;;;19.50;99.90;;;;;;6100371;23;20410;-88
2021/09/09 00:06:13;;;;;;;24.40;21.27;;;19.50;99.90;;;;;;6098174;23;20416;-88
2021/09/09 00:08:41;;;;;;;22.77;20.47;;;19.50;99.90;;;;;;6098597;23;20417;-88
2021/09/09 00:11:08;;;;;;;21.97;19.90;;;19.50;99.90;;;;;;6099893;23;20449;-88
2021/09/09 00:13:34;;;;;;;22.60;20.30;;;19.50;99.90;;;;;;6102143;23;20409;-88
2021/09/09 00:16:01;;;;;;;22.13;20.03;;;19.50;99.90;;;;;;6098953;23;20912;-88
2021/09/09 00:18:28;;;;;;;23.20;20.47;;;19.50;99.90;;;;;;6098347;23;20948;-88
2021/09/09 00:20:55;;;;;;;23.47;21.07;;;19.40;99.90;;;;;;6098271;23;20425;-88
2021/09/09 00:23:22;;;;;;;22.17;19.90;;;19.30;99.90;;;;;;6097660;23;20415;-88
2021/09/09 00:28:23;;;;;;;26.33;19.80;;;19.30;99.90;;;;;;6161985;23;20439;-82
2021/09/09 00:30:51;;;;;;;21.87;19.90;;;19.20;99.90;;;;;;6171974;23;20425;-85
2021/09/09 00:33:18;;;;;;;24.50;22.20;;;19.00;99.90;;;;;;6181875;23;20393;-83
2021/09/09 00:35:44;;;;;;;23.40;21.07;;;19.00;99.90;;;;;;6173758;23;20392;-83
2021/09/09 00:38:11;;;;;;;29.87;24.03;;;18.90;99.90;;;;;;6178222;23;20422;-84
2021/09/09 00:40:38;;;;;;;25.87;22.63;;;18.90;99.90;;;;;;6172159;23;20401;-83
2021/09/09 00:43:04;;;;;;;22.60;20.40;;;18.90;99.90;;;;;;6172755;23;20408;-82
2021/09/09 00:45:33;;;;;;;25.10;22.60;;;18.90;99.90;;;;;;6170268;23;20407;-85
2021/09/09 00:47:59;;;;;;;28.10;23.53;;;18.90;99.90;;;;;;6164075;23;20431;-84
2021/09/09 00:50:26;;;;;;;22.93;20.73;;;18.80;99.90;;;;;;6164159;23;20440;-86
2021/09/09 00:52:53;;;;;;;22.67;20.37;;;18.80;99.90;;;;;;6167817;23;20416;-85
2021/09/09 00:55:20;;;;;;;23.83;21.43;;;18.70;99.90;;;;;;6164389;23;20408;-85
2021/09/09 00:57:48;;;;;;;22.00;19.60;;;18.70;99.90;;;;;;6162330;23;20426;-83
2021/09/09 01:00:15;;;;;;;20.60;18.00;;;18.70;99.90;;;;;;6163425;23;20414;-83
2021/09/09 01:02:44;;;;;;;21.40;19.40;;;18.70;99.90;;;;;;6163388;23;20408;-83
2021/09/09 01:05:11;;;;;;;19.73;17.73;;;18.60;99.90;;;;;;6163272;23;20399;-84
2021/09/09 01:07:38;;;;;;;19.87;17.93;;;18.60;99.90;;;;;;6170927;23;20435;-82
2021/09/09 01:10:05;;;;;;;20.73;18.83;;;18.60;99.90;;;;;;6178389;23;20510;-83
2021/09/09 01:12:32;;;;;;;19.67;17.50;;;18.50;99.90;;;;;;6175887;23;20391;-82
2021/09/09 01:14:59;;;;;;;21.40;19.30;;;18.50;99.90;;;;;;6179650;23;20908;-85
2021/09/09 01:17:25;;;;;;;18.03;16.27;;;18.40;99.90;;;;;;6170184;23;20423;-84
2021/09/09 01:19:53;;;;;;;22.47;19.23;;;18.40;99.90;;;;;;6170489;23;20740;-85
2021/09/09 01:22:20;;;;;;;21.30;19.13;;;18.40;99.90;;;;;;6172539;23;20403;-84
2021/09/09 01:24:48;;;;;;;21.20;19.20;;;18.40;99.90;;;;;;6172784;23;20411;-85
2021/09/09 01:27:16;;;;;;;21.27;19.07;;;18.40;99.90;;;;;;6167195;23;20498;-84
2021/09/09 01:29:44;;;;;;;21.90;19.60;;;18.40;99.90;;;;;;6163196;23;20419;-86
2021/09/09 01:32:12;;;;;;;21.67;19.50;;;18.50;99.90;;;;;;6164025;23;20407;-85
2021/09/09 01:34:39;;;;;;;20.30;18.33;;;18.50;99.90;;;;;;6163610;23;20466;-85
2021/09/09 01:37:06;;;;;;;21.33;19.23;;;18.50;99.90;;;;;;6168185;23;20428;-86
2021/09/09 01:39:33;;;;;;;20.80;18.70;;;18.50;99.90;;;;;;6163964;23;20419;-84
2021/09/09 01:42:01;;;;;;;20.70;17.93;;;18.50;99.90;;;;;;6164687;23;20419;-85
2021/09/09 01:44:29;;;;;;;21.47;19.27;;;18.60;99.90;;;;;;6160777;23;20411;-84
2021/09/09 01:46:56;;;;;;;20.20;18.17;;;18.60;99.90;;;;;;6163345;23;20755;-85
2021/09/09 01:49:23;;;;;;;20.63;18.07;;;18.70;99.90;;;;;;6178998;23;20403;-85
2021/09/09 01:51:50;;;;;;;21.20;19.03;;;18.70;99.90;;;;;;6179685;23;20445;-85
2021/09/09 01:54:17;;;;;;;21.37;19.03;;;18.60;99.90;;;;;;6179217;23;20410;-82
2021/09/09 01:56:43;;;;;;;20.50;18.50;;;18.60;99.90;;;;;;6172731;23;20422;-81
2021/09/09 01:59:12;;;;;;;23.60;21.10;;;18.60;99.90;;;;;;6178977;23;20405;-82
2021/09/09 02:01:38;;;;;;;21.97;19.70;;;18.60;99.90;;;;;;6178517;23;20428;-83
2021/09/09 02:04:05;;;;;;;20.83;18.83;;;18.60;99.90;;;;;;6168642;23;20405;-82
2021/09/09 02:06:33;;;;;;;22.90;20.70;;;18.40;99.90;;;;;;6182257;23;20407;-83
2021/09/09 02:09:01;;;;;;;21.80;19.50;;;18.40;99.90;;;;;;6176750;23;20471;-83
2021/09/09 02:11:28;;;;;;;21.30;18.67;;;18.40;99.90;;;;;;6173271;23;20449;-83
2021/09/09 02:13:54;;;;;;;21.40;19.30;;;18.40;99.90;;;;;;6163945;23;20562;-84
2021/09/09 02:16:22;;;;;;;23.23;19.67;;;18.40;99.90;;;;;;6164062;23;20766;-84
2021/09/09 02:18:49;;;;;;;20.90;18.77;;;18.30;99.90;;;;;;6173131;23;20412;-84
2021/09/09 02:21:16;;;;;;;25.93;19.83;;;18.30;99.90;;;;;;6165340;23;20493;-84
2021/09/09 02:23:43;;;;;;;22.73;20.53;;;18.30;99.90;;;;;;6163436;23;20422;-85
2021/09/09 02:26:10;;;;;;;22.00;19.73;;;18.30;99.90;;;;;;6162442;23;20758;-85
2021/09/09 02:28:37;;;;;;;21.17;19.07;;;18.30;99.90;;;;;;6164274;23;20391;-84
2021/09/09 02:31:04;;;;;;;21.13;19.03;;;18.20;99.90;;;;;;6168220;23;20446;-84
2021/09/09 02:33:32;;;;;;;21.20;19.07;;;18.20;99.90;;;;;;6162224;23;20426;-86
2021/09/09 02:35:58;;;;;;;22.53;20.27;;;18.10;99.90;;;;;;6163644;23;20414;-84
2021/09/09 02:38:25;;;;;;;21.93;19.63;;;18.10;99.90;;;;;;6166266;23;20406;-83
2021/09/09 02:40:52;;;;;;;22.07;19.97;;;18.10;99.90;;;;;;6167883;23;20409;-82
2021/09/09 02:43:18;;;;;;;23.03;20.60;;;18.00;99.90;;;;;;6161524;23;20426;-83
2021/09/09 02:45:45;;;;;;;21.27;19.23;;;18.10;99.90;;;;;;6161555;23;20408;-82
2021/09/09 02:48:12;;;;;;;22.20;20.00;;;18.10;99.90;;;;;;6166937;23;20387;-83
2021/09/09 02:50:40;;;;;;;21.03;18.90;;;18.00;99.90;;;;;;6182587;23;20478;-83
2021/09/09 02:53:07;;;;;;;21.33;19.23;;;18.00;99.90;;;;;;6170060;23;20886;-85
2021/09/09 02:55:33;;;;;;;20.73;18.70;;;18.00;99.90;;;;;;6181411;23;20433;-83
2021/09/09 02:58:00;;;;;;;19.77;17.90;;;18.00;99.90;;;;;;6181370;23;20421;-82
2021/09/09 03:00:27;;;;;;;20.27;18.27;;;18.00;99.90;;;;;;6179916;23;20410;-84
2021/09/09 03:02:53;;;;;;;19.47;17.40;;;18.00;99.90;;;;;;6172512;23;20413;-83
2021/09/09 03:05:20;;;;;;;22.07;19.10;;;17.90;99.90;;;;;;6166588;23;20408;-83
2021/09/09 03:07:48;;;;;;;21.13;18.97;;;18.00;99.90;;;;;;6165217;23;20438;-84
2021/09/09 03:10:15;;;;;;;18.50;16.70;;;18.00;99.90;;;;;;6173142;23;20464;-81
2021/09/09 03:12:42;;;;;;;21.70;18.73;;;18.00;99.90;;;;;;6175703;23;20411;-83
2021/09/09 03:15:09;;;;;;;21.03;19.10;;;18.00;99.90;;;;;;6165736;23;20418;-83
2021/09/09 03:17:36;;;;;;;19.87;17.77;;;17.90;99.90;;;;;;6163773;23;20786;-84
2021/09/09 03:20:04;;;;;;;19.30;17.47;;;17.90;99.90;;;;;;6169393;23;20399;-83
2021/09/09 03:22:30;;;;;;;19.50;17.60;;;17.90;99.90;;;;;;6177823;23;20434;-84
2021/09/09 03:24:58;;;;;;;20.53;18.53;;;17.90;99.90;;;;;;6167163;23;20761;-84
2021/09/09 03:27:25;;;;;;;20.80;18.53;;;17.90;99.90;;;;;;6163664;23;20467;-86
2021/09/09 03:29:52;;;;;;;21.10;18.90;;;17.90;99.90;;;;;;6162712;23;20407;-84
2021/09/09 03:32:18;;;;;;;20.13;18.40;;;17.90;99.90;;;;;;6161868;23;20447;-84
2021/09/09 03:34:45;;;;;;;21.10;18.20;;;17.80;99.90;;;;;;6163560;23;20413;-84
2021/09/09 03:37:12;;;;;;;19.93;17.83;;;17.80;99.90;;;;;;6176784;23;20441;-82
2021/09/09 03:39:38;;;;;;;19.93;18.03;;;17.80;99.90;;;;;;6172418;23;20411;-84
2021/09/09 03:42:07;;;;;;;18.70;17.00;;;17.80;99.90;;;;;;6164071;23;20410;-84
2021/09/09 03:44:33;;;;;;;20.80;18.73;;;17.90;99.90;;;;;;6163688;23;20407;-85
2021/09/09 03:47:00;;;;;;;20.43;18.33;;;17.80;99.90;;;;;;6170058;23;20427;-84
2021/09/09 03:49:27;;;;;;;20.40;17.80;;;17.80;99.90;;;;;;6165512;23;20901;-84
2021/09/09 03:51:53;;;;;;;19.47;17.63;;;17.80;99.90;;;;;;6165304;23;20438;-85
2021/09/09 03:54:20;;;;;;;18.40;16.47;;;17.80;99.90;;;;;;6164805;23;20407;-84
2021/09/09 03:56:47;;;;;;;19.60;17.90;;;17.80;99.90;;;;;;6162223;23;20439;-82
2021/09/09 03:59:15;;;;;;;21.87;18.57;;;17.80;99.90;;;;;;6162850;23;20414;-84
2021/09/09 04:01:42;;;;;;;20.40;18.30;;;17.70;99.90;;;;;;6163209;23;20411;-84
2021/09/09 04:04:08;;;;;;;20.50;18.50;;;17.70;99.90;;;;;;6168579;23;20787;-85
2021/09/09 04:06:35;;;;;;;20.17;18.10;;;17.70;99.90;;;;;;6161517;23;20433;-83
2021/09/09 04:09:02;;;;;;;20.00;18.20;;;17.70;99.90;;;;;;6158429;23;20904;-84
2021/09/09 04:11:29;;;;;;;18.10;16.30;;;17.70;99.90;;;;;;6181672;23;20456;-83
2021/09/09 04:13:56;;;;;;;20.20;18.30;;;17.70;99.90;;;;;;6168157;23;20862;-86
2021/09/09 04:16:24;;;;;;;20.53;18.53;;;17.80;99.90;;;;;;6166010;23;20427;-85
2021/09/09 04:18:50;;;;;;;20.30;18.10;;;17.70;99.90;;;;;;6163779;23;20556;-86
2021/09/09 04:21:17;;;;;;;19.50;17.63;;;17.70;99.90;;;;;;6165764;23;20431;-85
2021/09/09 04:23:44;;;;;;;22.33;19.13;;;17.70;99.90;;;;;;6165576;23;20407;-83
2021/09/09 04:26:10;;;;;;;20.13;18.00;;;17.70;99.90;;;;;;6164984;23;20428;-86
2021/09/09 04:28:37;;;;;;;22.23;19.97;;;17.70;99.90;;;;;;6162779;23;20391;-86
2021/09/09 04:31:04;;;;;;;19.67;17.63;;;17.80;99.90;;;;;;6162787;23;20449;-84
2021/09/09 04:33:32;;;;;;;18.57;16.67;;;17.90;99.90;;;;;;6160680;23;20407;-86
2021/09/09 04:35:59;;;;;;;19.07;16.70;;;17.90;99.90;;;;;;6163217;23;20407;-84
2021/09/09 04:38:26;;;;;;;21.27;19.10;;;17.80;99.90;;;;;;6165833;23;20402;-84
2021/09/09 04:40:53;;;;;;;20.03;18.00;;;17.90;99.90;;;;;;6165022;23;20394;-84
2021/09/09 04:43:19;;;;;;;22.03;19.40;;;17.90;99.90;;;;;;6167030;23;20499;-85
2021/09/09 04:45:46;;;;;;;22.77;18.73;;;17.90;99.90;;;;;;6180804;23;20403;-84
2021/09/09 04:48:14;;;;;;;22.30;20.20;;;17.90;99.90;;;;;;6166213;23;20409;-84
2021/09/09 04:50:42;;;;;;;19.43;17.57;;;17.90;99.90;;;;;;6166418;23;20403;-83
2021/09/09 04:53:09;;;;;;;19.83;17.93;;;17.90;99.90;;;;;;6167744;23;20412;-84
2021/09/09 04:55:36;;;;;;;22.80;19.07;;;17.90;99.90;;;;;;6170088;23;20406;-84
2021/09/09 04:58:03;;;;;;;18.83;17.03;;;17.90;99.90;;;;;;6171689;23;20422;-85
2021/09/09 05:00:29;;;;;;;19.87;17.63;;;17.80;99.90;;;;;;6174897;23;20418;-83
2021/09/09 05:02:56;;;;;;;20.07;17.97;;;17.80;99.90;;;;;;6180248;23;20406;-86
2021/09/09 05:05:23;;;;;;;26.43;18.93;;;17.80;99.90;;;;;;6167886;23;20470;-86
2021/09/09 05:07:51;;;;;;;21.83;19.03;;;17.80;99.90;;;;;;6182144;23;20432;-84
2021/09/09 05:10:18;;;;;;;21.33;19.23;;;17.80;99.90;;;;;;6180800;23;20474;-84
2021/09/09 05:12:44;;;;;;;21.47;19.43;;;17.70;99.90;;;;;;6180870;23;20438;-87
2021/09/09 05:15:12;;;;;;;21.53;19.27;;;17.80;99.90;;;;;;6181277;23;20474;-86
2021/09/09 05:17:39;;;;;;;21.90;19.57;;;17.80;99.90;;;;;;6171977;23;20423;-85
2021/09/09 05:20:07;;;;;;;19.37;17.57;;;17.80;99.90;;;;;;6165020;23;20410;-85
2021/09/09 05:22:34;;;;;;;20.60;18.37;;;17.80;99.90;;;;;;6165178;23;20403;-86
2021/09/09 05:25:03;;;;;;;21.53;19.10;;;17.80;99.90;;;;;;6171424;23;20457;-85
2021/09/09 05:27:29;;;;;;;21.07;19.00;;;17.80;99.90;;;;;;6179655;23;20494;-85
2021/09/09 05:29:56;;;;;;;19.53;17.73;;;17.70;99.90;;;;;;6177621;23;20399;-84
2021/09/09 05:32:23;;;;;;;23.13;18.70;;;17.80;99.90;;;;;;6174982;23;20443;-85
2021/09/09 05:34:49;;;;;;;22.73;20.07;;;17.80;99.90;;;;;;6176163;23;20407;-85
2021/09/09 05:37:16;;;;;;;20.80;17.90;;;17.80;99.90;;;;;;6177427;23;20426;-84
2021/09/09 05:39:43;;;;;;;18.27;16.50;;;17.80;99.90;;;;;;6175773;23;20403;-85
2021/09/09 05:42:11;;;;;;;20.50;18.33;;;17.80;99.90;;;;;;6170531;23;20403;-84
2021/09/09 05:44:41;;;;;;;19.77;17.93;;;17.90;99.90;;;;;;6170129;23;20430;-84
2021/09/09 05:47:09;;;;;;;20.83;18.77;;;17.90;99.90;;;;;;6168918;23;20430;-84
2021/09/09 05:49:35;;;;;;;19.40;17.70;;;18.00;99.90;;;;;;6167319;23;20406;-83
2021/09/09 05:52:03;;;;;;;19.97;18.00;;;18.00;99.90;;;;;;6164774;23;21065;-84
2021/09/09 05:54:31;;;;;;;19.43;17.27;;;18.10;99.90;;;;;;6179725;23;20395;-86
2021/09/09 05:56:57;;;;;;;24.67;19.37;;;18.20;99.90;;;;;;6175871;23;20485;-85
2021/09/09 05:59:26;;;;;;;20.17;18.00;;;18.40;99.90;;;;;;6166643;23;20484;-85
2021/09/09 06:01:53;;;;;;;17.60;15.80;;;18.40;99.90;;;;;;6164829;23;20403;-84
2021/09/09 06:04:21;;;;;;;19.07;17.03;;;18.50;99.90;;;;;;6164303;23;20411;-84
2021/09/09 06:06:48;;;;;;;20.10;18.17;;;18.60;99.90;;;;;;6165212;23;20925;-82
2021/09/09 06:09:14;;;;;;;24.07;19.33;;;18.70;99.90;;;;;;6168092;23;20407;-82
2021/09/09 06:11:41;;;;;;;19.97;18.03;;;18.70;99.90;;;;;;6175819;23;20434;-81
2021/09/09 06:14:08;;;;;;;22.80;20.60;;;18.80;99.90;;;;;;6182750;23;20450;-83
2021/09/09 06:16:38;;;;;;;22.27;19.77;;;18.80;99.90;;;;;;6166191;23;20426;-84
2021/09/09 06:19:05;;;;;;;22.17;19.10;;;18.90;99.90;;;;;;6163570;23;20434;-83
2021/09/09 06:21:31;;;;;;;22.20;20.00;;;19.00;99.90;;;;;;6163635;23;20418;-84
2021/09/09 06:23:58;;;;;;;20.00;18.10;;;18.90;99.90;;;;;;6162780;23;20400;-84
2021/09/09 06:28:55;;;;;;;23.77;18.80;;;19.10;99.90;;;;;;6178864;23;20404;-90
2021/09/09 06:31:21;;;;;;;21.93;18.97;;;19.40;99.90;;;;;;6179166;23;20448;-89
2021/09/09 06:33:49;;;;;;;20.20;16.13;;;19.60;99.90;;;;;;6162210;23;20410;-89
2021/09/09 06:36:18;;;;;;;21.70;16.73;;;19.70;99.90;;;;;;6159205;23;20431;-89
2021/09/09 06:38:45;;;;;;;17.77;15.97;;;19.90;99.90;;;;;;6158025;23;20418;-89
2021/09/09 06:41:11;;;;;;;16.13;14.53;;;20.00;99.90;;;;;;6159492;23;20415;-89
2021/09/09 06:43:38;;;;;;;15.83;14.37;;;20.20;99.90;;;;;;6159499;23;20420;-90
2021/09/09 06:46:05;;;;;;;22.00;16.10;;;20.40;99.90;;;;;;6158516;23;20759;-89
2021/09/09 06:48:32;;;;;;;16.57;15.00;;;20.50;99.90;;;;;;6158953;23;20429;-89
2021/09/09 06:51:01;;;;;;;18.23;15.13;;;20.70;99.90;;;;;;6159396;23;20473;-89
2021/09/09 06:53:28;;;;;;;18.57;15.33;;;20.80;99.90;;;;;;6159902;23;20500;-89
2021/09/09 06:55:55;;;;;;;18.23;14.63;;;20.80;99.90;;;;;;6157977;23;20406;-89
2021/09/09 06:58:22;;;;;;;16.00;14.23;;;20.80;99.90;;;;;;6157215;23;20437;-89
2021/09/09 07:00:50;;;;;;;16.13;14.63;;;20.80;99.90;;;;;;6157253;23;20399;-91
2021/09/09 07:03:18;;;;;;;20.67;16.90;;;20.90;99.90;;;;;;6166741;23;20403;-89
2021/09/09 07:05:45;;;;;;;22.70;16.23;;;20.90;99.90;;;;;;6181393;23;20390;-89
2021/09/09 07:08:13;;;;;;;17.33;15.63;;;20.90;99.90;;;;;;6165916;23;20449;-89
2021/09/09 07:10:39;;;;;;;18.23;16.43;;;21.00;99.90;;;;;;6156895;23;20411;-89
2021/09/09 07:13:06;;;;;;;19.57;15.37;;;21.00;99.90;;;;;;6155951;23;20442;-89
2021/09/09 07:15:33;;;;;;;16.87;15.07;;;21.20;99.90;;;;;;6156814;23;20410;-89
2021/09/09 07:17:59;;;;;;;16.23;14.53;;;21.60;99.90;;;;;;6156154;23;20437;-89
2021/09/09 07:20:26;;;;;;;19.53;14.77;;;21.90;99.90;;;;;;6156970;23;20752;-88
2021/09/09 07:22:53;;;;;;;16.70;15.00;;;22.10;99.90;;;;;;6156685;23;20712;-89
2021/09/09 07:25:21;;;;;;;15.87;14.37;;;22.40;99.90;;;;;;6157386;23;20413;-88
2021/09/09 07:27:48;;;;;;;17.20;15.03;;;22.80;99.90;;;;;;6156568;23;20953;-89
2021/09/09 07:30:14;;;;;;;18.03;15.20;;;23.40;99.90;;;;;;6156326;23;20413;-89
2021/09/09 07:32:41;;;;;;;15.60;14.10;;;23.50;99.60;;;;;;6163607;23;20763;-89
2021/09/09 07:35:09;;;;;;;14.53;13.17;;;23.30;99.70;;;;;;6175808;23;20417;-88
2021/09/09 07:37:36;;;;;;;15.23;13.73;;;23.20;99.80;;;;;;6169167;23;20449;-90
2021/09/09 07:40:05;;;;;;;14.17;12.97;;;23.20;99.70;;;;;;6169337;23;20457;-89
2021/09/09 07:42:34;;;;;;;17.30;12.40;;;23.40;99.70;;;;;;6175855;23;20398;-90
2021/09/09 07:45:00;;;;;;;14.53;13.00;;;23.80;99.30;;;;;;6169195;23;20866;-89
2021/09/09 07:47:27;;;;;;;16.60;14.37;;;24.30;98.70;;;;;;6164512;23;20438;-89
2021/09/09 07:49:54;;;;;;;20.03;13.90;;;24.40;97.70;;;;;;6155200;23;20816;-89
2021/09/09 07:52:20;;;;;;;15.80;14.20;;;24.80;97.30;;;;;;6156093;23;20434;-89
2021/09/09 07:54:47;;;;;;;16.33;14.00;;;24.80;96.20;;;;;;6155678;23;20413;-89
2021/09/09 07:57:14;;;;;;;15.10;13.60;;;24.60;96.40;;;;;;6155991;23;20434;-89
2021/09/09 07:59:42;;;;;;;21.07;17.73;;;24.50;96.80;;;;;;6156767;23;20410;-89
2021/09/09 08:02:08;;;;;;;17.50;12.70;;;24.30;97.10;;;;;;6156104;23;20403;-90
2021/09/09 08:04:35;;;;;;;13.97;12.87;;;24.30;97.00;;;;;;6155398;23;20414;-89
2021/09/09 08:07:02;;;;;;;13.27;11.80;;;24.50;96.80;;;;;;6156654;23;20777;-89
2021/09/09 08:09:29;;;;;;;13.37;12.27;;;24.70;96.80;;;;;;6155708;23;20407;-88
2021/09/09 08:11:56;;;;;;;12.43;10.97;;;24.90;96.50;;;;;;6156311;23;20933;-89
2021/09/09 08:14:23;;;;;;;13.83;12.63;;;24.90;95.70;;;;;;6156877;23;20415;-89
2021/09/09 08:16:51;;;;;;;14.17;12.53;;;25.00;96.10;;;;;;6156703;23;20437;-89
2021/09/09 08:19:18;;;;;;;14.00;12.20;;;25.10;95.90;;;;;;6156979;23;20402;-89
2021/09/09 08:21:44;;;;;;;20.83;14.47;;;25.00;95.60;;;;;;6161016;23;20407;-89
2021/09/09 08:24:11;;;;;;;14.20;12.40;;;25.00;95.70;;;;;;6181279;23;20425;-89
2021/09/09 08:26:38;;;;;;;14.10;12.70;;;25.00;95.50;;;;;;6176809;23;20429;-89
2021/09/09 08:29:05;;;;;;;13.63;12.10;;;25.30;95.40;;;;;;6180621;23;20451;-89
2021/09/09 08:31:33;;;;;;;14.53;13.07;;;25.50;95.30;;;;;;6175712;23;20407;-89
2021/09/09 08:34:01;;;;;;;13.30;11.97;;;25.80;94.70;;;;;;6165590;23;20438;-88
2021/09/09 08:36:28;;;;;;;14.87;13.27;;;25.80;94.70;;;;;;6170654;23;20510;-88
2021/09/09 08:38:55;;;;;;;12.33;11.20;;;25.80;94.20;;;;;;6182545;23;20462;-88
2021/09/09 08:41:22;;;;;;;12.27;11.17;;;25.80;94.60;;;;;;6183034;23;20407;-89
2021/09/09 08:43:49;;;;;;;12.97;11.97;;;25.90;94.20;;;;;;6181552;23;20409;-90
2021/09/09 08:46:17;;;;;;;12.80;10.97;;;27.20;93.10;;;;;;6171851;23;20397;-89
2021/09/09 08:48:45;;;;;;;12.70;11.50;;;28.00;90.90;;;;;;6166795;23;20412;-88
2021/09/09 08:51:14;;;;;;;12.03;10.93;;;29.20;87.40;;;;;;6159019;23;20898;-88
2021/09/09 08:53:42;;;;;;;12.43;10.27;;;29.50;83.70;;;;;;6176486;23;20438;-87
2021/09/09 08:56:08;;;;;;;13.60;11.50;;;28.80;83.50;;;;;;6175829;23;20417;-87
2021/09/09 08:58:36;;;;;;;13.03;11.47;;;29.00;83.70;;;;;;6161567;23;20426;-88
2021/09/09 09:01:11;;;;;;;12.10;11.00;;;29.90;81.00;;;;;;6160738;23;20407;-87
2021/09/09 09:03:47;;;;;;;12.70;11.40;;;29.80;80.50;;;;;;6159830;23;20942;-87
2021/09/09 09:06:34;;;;;;;12.10;9.53;;;30.60;75.40;;;;;;6158769;23;20489;-88
2021/09/09 09:09:04;;;;;;;10.03;9.13;;;30.50;75.00;;;;;;6158230;23;20462;-88
2021/09/09 09:11:33;;;;;;;12.63;11.47;;;31.90;69.90;;;;;;6156917;23;20887;-88
2021/09/09 09:14:00;;;;;;;11.00;9.90;;;32.60;66.50;;;;;;6157383;23;20445;-88
2021/09/09 09:16:28;;;;;;;10.53;8.77;;;33.70;63.20;;;;;;6155092;23;20415;-88
2021/09/09 09:18:57;;;;;;;8.90;8.10;;;34.30;60.50;;;;;;6158099;23;20402;-88
2021/09/09 09:21:23;;;;;;;9.03;8.20;;;35.30;57.20;;;;;;6173296;23;20415;-88
2021/09/09 09:23:54;;;;;;;8.87;8.07;;;36.70;55.40;;;;;;6176608;23;20406;-88
2021/09/09 09:26:20;;;;;;;7.90;7.20;;;36.80;52.00;;;;;;6178164;23;20395;-89
2021/09/09 09:28:49;;;;;;;10.17;8.07;;;37.60;51.40;;;;;;6182707;23;20405;-89
2021/09/09 09:31:18;;;;;;;7.97;7.37;;;38.90;49.10;;;;;;6178494;23;20433;-88
2021/09/09 09:33:46;;;;;;;8.80;8.20;;;39.50;45.60;;;;;;6172408;23;20755;-88
2021/09/09 09:36:19;;;;;;;7.63;7.03;;;39.70;45.60;;;;;;6163669;23;20417;-88
2021/09/09 09:38:46;;;;;;;7.90;7.37;;;40.20;44.40;;;;;;6166590;23;20379;-88
2021/09/09 09:41:17;;;;;;;7.63;6.93;;;40.60;41.80;;;;;;6168286;23;20417;-90
2021/09/09 09:43:57;;;;;;;9.20;8.37;;;39.90;41.30;;;;;;6133549;23;20387;-89
2021/09/09 09:46:29;;;;;;;8.67;7.97;;;38.20;43.70;;;;;;6157752;23;20398;-89
2021/09/09 09:48:56;;;;;;;7.93;7.33;;;37.10;44.00;;;;;;6158350;23;20402;-89
2021/09/09 09:51:41;;;;;;;8.93;7.50;;;36.00;45.80;;;;;;6159266;23;20415;-88
2021/09/09 09:54:09;;;;;;;8.63;7.90;;;34.50;49.00;;;;;;6160075;23;20427;-89
2021/09/09 09:56:37;;;;;;;8.43;7.63;;;34.10;49.60;;;;;;6158878;23;22149;-89
2021/09/09 09:59:05;;;;;;;8.43;7.43;;;34.30;49.80;;;;;;6159526;23;20411;-89
2021/09/09 10:01:32;;;;;;;8.80;8.10;;;35.30;49.30;;;;;;6159320;23;20410;-88
2021/09/09 10:04:02;;;;;;;8.03;7.33;;;36.00;47.20;;;;;;6158642;23;20402;-89
2021/09/09 10:06:29;;;;;;;8.63;7.57;;;35.80;47.00;;;;;;6158091;23;20411;-89
2021/09/09 10:08:56;;;;;;;8.60;7.90;;;34.60;48.80;;;;;;6158480;23;20407;-89
2021/09/09 10:11:23;;;;;;;9.00;8.20;;;32.80;50.80;;;;;;6158574;23;20403;-89
2021/09/09 10:13:51;;;;;;;8.83;7.97;;;31.50;53.90;;;;;;6158593;23;20760;-89
2021/09/09 10:16:22;;;;;;;8.27;7.60;;;31.40;55.70;;;;;;6158292;23;20411;-89
2021/09/09 10:18:49;;;;;;;8.27;7.60;;;31.50;55.40;;;;;;6159176;23;20402;-89
2021/09/09 10:21:38;;;;;;;8.33;7.60;;;31.50;55.40;;;;;;6157986;23;20423;-90
2021/09/09 10:24:13;;;;;;;8.13;7.43;;;32.10;55.00;;;;;;6182243;23;20375;-89
2021/09/09 10:26:41;;;;;;;7.93;7.33;;;32.90;53.50;;;;;;6180845;23;20406;-89
2021/09/09 10:29:44;;;;;;;8.30;7.70;;;33.70;51.70;;;;;;6181929;23;20391;-89
2021/09/09 10:32:50;;;;;;;8.20;7.60;;;34.30;51.20;;;;;;6160253;23;20398;-89
2021/09/09 10:35:39;;;;;;;7.80;7.10;;;36.40;49.00;;;;;;6158536;23;20379;-90
2021/09/09 10:38:28;;;;;;;8.27;7.57;;;37.40;44.80;;;;;;6159625;23;20493;-89
2021/09/09 10:40:56;;;;;;;7.23;6.60;;;36.90;44.90;;;;;;6151582;23;20421;-89
2021/09/09 10:43:48;;;;;;;6.90;6.40;;;36.70;44.30;;;;;;6166250;23;20399;-90
2021/09/09 10:46:17;;;;;;;6.90;6.20;;;36.70;45.30;;;;;;6181982;23;20459;-89
2021/09/09 10:48:46;;;;;;;6.80;6.30;;;34.80;47.10;;;;;;6160882;23;20441;-90
2021/09/09 10:51:19;;;;;;;8.20;7.50;;;34.80;48.10;;;;;;6159682;23;20411;-90
2021/09/09 10:53:53;;;;;;;8.17;7.47;;;35.00;48.10;;;;;;6158865;23;20497;-89
2021/09/09 10:56:21;;;;;;;8.03;7.20;;;35.40;47.30;;;;;;6157674;23;20710;-89
2021/09/09 10:59:13;;;;;;;6.97;6.40;;;34.80;47.70;;;;;;6157907;23;20410;-89
2021/09/09 11:01:44;;;;;;;6.73;6.20;;;35.00;48.10;;;;;;6157809;23;20438;-89
2021/09/09 11:04:29;;;;;;;6.57;6.07;;;36.10;47.20;;;;;;6157152;23;20446;-90
2021/09/09 11:06:56;;;;;;;10.03;8.90;;;36.70;46.10;;;;;;6157146;23;20910;-92
2021/09/09 11:09:23;;;;;;;7.83;7.20;;;38.40;44.40;;;;;;6159092;23;20734;-91
2021/09/09 11:11:58;;;;;;;7.17;6.53;;;39.60;42.00;;;;;;6168208;23;20413;-91
2021/09/09 11:14:25;;;;;;;6.60;6.00;;;40.90;39.60;;;;;;6182634;23;20482;-90
2021/09/09 11:16:53;;;;;;;6.73;6.07;;;39.80;40.10;;;;;;6182136;23;20423;-91
2021/09/09 11:19:22;;;;;;;6.67;6.07;;;40.40;40.30;;;;;;6182651;23;20438;-90
2021/09/09 11:21:50;;;;;;;6.50;6.00;;;40.50;40.00;;;;;;6157782;23;20411;-89
2021/09/09 11:24:18;;;;;;;6.70;6.10;;;41.70;38.30;;;;;;6157479;23;20406;-91
2021/09/09 11:26:47;;;;;;;7.03;6.53;;;42.70;37.10;;;;;;6156068;23;20435;-91
2021/09/09 11:29:15;;;;;;;8.47;6.00;;;41.60;36.70;;;;;;6157600;23;20410;-91
2021/09/09 11:31:46;;;;;;;6.13;5.73;;;40.10;37.20;;;;;;6157119;23;20521;-92
2021/09/09 11:34:15;;;;;;;7.10;6.43;;;38.90;40.50;;;;;;6158581;23;20439;-90
2021/09/09 11:36:44;;;;;;;7.40;6.73;;;38.40;40.70;;;;;;6174163;23;20494;-90
2021/09/09 11:39:14;;;;;;;7.90;7.10;;;38.60;41.20;;;;;;6157217;23;20407;-91
2021/09/09 11:41:41;;;;;;;6.00;5.50;;;37.90;41.60;;;;;;6156752;23;20890;-90
2021/09/09 11:44:10;;;;;;;7.00;6.50;;;36.90;42.90;;;;;;6156784;23;20409;-92
2021/09/09 11:46:39;;;;;;;5.77;5.30;;;37.30;43.40;;;;;;6156885;23;20441;-91
2021/09/09 11:49:08;;;;;;;7.03;6.40;;;37.80;42.90;;;;;;6156525;23;20957;-90
2021/09/09 11:51:38;;;;;;;6.90;6.30;;;38.00;43.60;;;;;;6157654;23;20737;-91
2021/09/09 11:54:06;;;;;;;7.40;5.83;;;38.00;42.30;;;;;;6158000;23;20443;-91
2021/09/09 11:56:33;;;;;;;7.00;6.40;;;38.90;41.70;;;;;;6158226;23;20911;-92
2021/09/09 11:59:03;;;;;;;6.20;5.70;;;39.60;40.90;;;;;;6157861;23;20411;-91
2021/09/09 12:01:31;;;;;;;6.40;5.80;;;39.20;40.60;;;;;;6156396;23;20494;-90
2021/09/09 12:04:00;;;;;;;6.00;5.47;;;37.80;40.70;;;;;;6156367;23;20395;-91
2021/09/09 12:06:27;;;;;;;8.83;6.40;;;36.80;43.60;;;;;;6155746;23;20406;-90
2021/09/09 12:08:55;;;;;;;6.70;6.20;;;37.60;43.90;;;;;;6156915;23;20761;-92
2021/09/09 12:11:22;;;;;;;6.97;6.27;;;39.90;41.00;;;;;;6157077;23;20407;-91
2021/09/09 12:13:49;;;;;;;8.33;6.07;;;40.50;39.60;;;;;;6156398;23;20438;-92
2021/09/09 12:16:18;;;;;;;10.43;7.27;;;38.90;39.60;;;;;;6156066;23;20405;-91
2021/09/09 12:18:48;;;;;;;7.63;6.20;;;36.80;42.50;;;;;;6155327;23;20430;-89
2021/09/09 12:21:17;;;;;;;5.93;5.40;;;37.40;42.60;;;;;;6156677;23;20413;-91
2021/09/09 12:24:04;;;;;;;5.40;5.00;;;38.00;42.50;;;;;;6156225;23;20442;-92
2021/09/09 12:29:56;;;;;;;6.40;5.83;;;38.30;40.90;;;;;;6166430;23;20407;-91
2021/09/09 12:32:26;;;;;;;5.97;5.57;;;37.30;41.00;;;;;;6166796;23;20406;-87
2021/09/09 12:35:14;;;;;;;8.27;6.47;;;37.10;42.00;;;;;;6179889;23;20434;-87
2021/09/09 12:37:41;;;;;;;6.73;6.13;;;35.60;42.00;;;;;;6165835;23;20509;-87
2021/09/09 12:40:11;;;;;;;6.50;6.00;;;35.50;43.10;;;;;;6161440;23;20425;-88
2021/09/09 12:43:35;;;;;;;8.60;6.37;;;35.30;44.20;;;;;;6168132;23;20435;-90
2021/09/09 12:49:39;;;;;;;7.10;6.40;;;33.70;45.50;;;;;;6076230;23;20424;-90
2021/09/09 12:52:56;;;;;;;9.80;6.67;;;32.10;48.50;;;;;;6160119;23;20421;-89